Bernice Lind — WDC8364 — position and weather

sailwx.info

Track history (hours):
 
Tides and Currents Weather Stations Pressure Air Temp Water Temp Dewpoint Dewpoint Depression Visibility Wind Speed Wind Dir Waves Ship Positions

Bernice Lind

Owner: Riverview Equipment Company, LLC, Petaluma, CA. More information available from US FCC via Universal Licensing System and Coast Guard Vessel Documentation Center.

Last reported at 2016-Jul-19 21:26 UTC. Time now 2016-Jul-29 15:57 UTC.
Position N 38°06' W 122°16'.
Warning: this ship's position is 9 days out of date.

Length 20 m; draft 2.4 m.

Type: Towing. MMSI: 367085890.

Date/timePositionNaut miles runAvg speedWind from/ knotsBaromVisibWave heightAir tempDewpointWater temp
2016-Jul-19 21:26N 38°06' W 122°16'  
2016-Jul-15 10:04N 38°05' W 121°51'0 0.0
2016-Jul-15 07:30N 38°05' W 121°51'0 0.0
2016-Jul-15 06:30N 38°05' W 121°51'0 0.0
2016-Jul-15 05:33N 38°05' W 121°51'0 0.0
2016-Jul-15 04:22N 38°05' W 121°51'1 0.1
2016-Jul-14 19:33N 38°04' W 121°51'11 5.4
2016-Jul-14 17:32N 38°03' W 122°05'6 6.2
2016-Jul-14 16:32N 38°04' W 122°13'3 3.1
2016-Jul-14 15:33N 38°06' W 122°16'3 2.8
2016-Jul-14 14:33N 38°03' W 122°18'4 3.9
2016-Jul-14 13:33N 38°02' W 122°22'4 3.9
2016-Jul-14 12:29N 37°59' W 122°26'3 2.7
2016-Jul-14 11:15N 37°55' W 122°27'2 2.6
2016-Jul-14 10:31N 37°54' W 122°26'3 2.7
2016-Jul-14 09:33N 37°51' W 122°24'5 4.6
2016-Jul-14 08:33N 37°47' W 122°23'1 0.8
2016-Jul-14 07:33N 37°46' W 122°23'5 5.2
2016-Jul-14 06:33N 37°42' W 122°19'5 4.9
2016-Jul-14 05:29N 37°38' W 122°15'1 1.2
2016-Jul-14 04:33N 37°39' W 122°14'1 0.9
2016-Jul-14 03:32N 37°38' W 122°14'1 0.9
2016-Jul-14 02:15N 37°38' W 122°13'1 1.1
2016-Jul-14 01:33N 37°38' W 122°14'1 0.7
2016-Jul-14 00:30N 37°39' W 122°14'1 1.1
2016-Jul-13 23:27N 37°38' W 122°14'0 0.4
2016-Jul-13 22:29N 37°38' W 122°14'1 0.7
2016-Jul-13 21:30N 37°39' W 122°14'1 1.2
2016-Jul-13 20:33N 37°37' W 122°14'0 0.1
2016-Jul-13 19:28N 37°38' W 122°14'0 0.4
2016-Jul-13 18:33N 37°38' W 122°13'0 0.4
2016-Jul-13 17:30N 37°38' W 122°14'0 0.0
2016-Jul-13 16:32N 37°38' W 122°14'0 0.4
2016-Jul-13 15:19N 37°38' W 122°14'0 0.0
2016-Jul-13 14:32N 37°38' W 122°14'1 1.0
2016-Jul-13 13:33N 37°38' W 122°14'1 0.9
2016-Jul-13 12:32N 37°38' W 122°15'3 2.7
2016-Jul-13 11:32N 37°40' W 122°17'5 4.9
2016-Jul-13 10:33N 37°44' W 122°21'3 2.9
2016-Jul-13 09:33N 37°46' W 122°23'1 1.3
2016-Jul-13 08:33N 37°45' W 122°23'1 0.6
2016-Jul-13 07:33N 37°45' W 122°23'0 0.2
2016-Jul-13 06:33N 37°45' W 122°22'8 6.4
2016-Jul-13 05:19N 37°39' W 122°16'2 2.7
2016-Jul-13 04:25N 37°39' W 122°13'1 0.9
2016-Jul-13 03:30N 37°38' W 122°14'1 0.7
2016-Jul-13 02:16N 37°39' W 122°13'1 0.9
2016-Jul-13 01:33N 37°38' W 122°14'0 0.1
2016-Jul-13 00:32N 37°38' W 122°14'1 0.6
2016-Jul-12 23:30N 37°38' W 122°13'1 0.9
2016-Jul-12 22:23N 37°37' W 122°14'1 0.8
2016-Jul-12 21:30N 37°37' W 122°13'1 1.3
2016-Jul-12 20:33N 37°38' W 122°14'0 0.0
2016-Jul-12 19:33N 37°38' W 122°14'1 0.7
2016-Jul-12 18:29N 37°38' W 122°13'0 0.1
2016-Jul-12 17:33N 37°38' W 122°14'0 0.0
2016-Jul-12 16:31N 37°38' W 122°14'0 0.2
2016-Jul-12 15:23N 37°38' W 122°14'1 0.7
2016-Jul-12 14:21N 37°38' W 122°13'1 1.0
2016-Jul-12 13:33N 37°38' W 122°14'1 0.9
2016-Jul-12 12:32N 37°38' W 122°13'1 0.6
2016-Jul-12 11:32N 37°38' W 122°13'2 1.8
2016-Jul-12 10:29N 37°39' W 122°16'4 4.0
2016-Jul-12 09:34N 37°42' W 122°18'6 5.5
2016-Jul-12 08:33N 37°46' W 122°23'0 0.3
2016-Jul-12 07:33N 37°46' W 122°23'0 0.0
2016-Jul-12 06:33N 37°46' W 122°23'0 0.0
2016-Jul-12 05:33N 37°46' W 122°23'0 0.1
2016-Jul-12 04:33N 37°46' W 122°23'0 0.0
2016-Jul-12 03:33N 37°46' W 122°23'3 3.4
2016-Jul-12 02:33N 37°50' W 122°24'10 5.0
2016-Jul-12 00:32N 37°60' W 122°25'5 4.7
2016-Jul-11 23:33N 38°03' W 122°20'6 5.9
2016-Jul-11 22:33N 38°04' W 122°13'4 0.1
2016-Jul-10 10:33N 38°02' W 122°08'4 4.3
2016-Jul-10 09:32N 38°04' W 122°13'1 0.2
2016-Jul-10 03:23N 38°04' W 122°15'6 5.0
2016-Jul-10 02:06N 38°02' W 122°22'3 4.9
2016-Jul-10 01:33N 37°60' W 122°25'6 4.9
2016-Jul-10 00:19N 37°54' W 122°25'4 4.7
2016-Jul-09 23:33N 37°51' W 122°23'4 3.8
2016-Jul-09 22:33N 37°47' W 122°23'1 1.4
2016-Jul-09 21:33N 37°46' W 122°23'  
Track history (hours):
 
Tides and Currents Weather Stations Pressure Air Temp Water Temp Dewpoint Dewpoint Depression Visibility Wind Speed Wind Dir Waves Ship Positions

Bernice Lind

Owner: Riverview Equipment Company, LLC, Petaluma, CA. More information available from US FCC via Universal Licensing System and Coast Guard Vessel Documentation Center.

Last reported at 2016-Jul-19 21:26 UTC. Time now 2016-Jul-29 15:57 UTC.
Position N 38°06' W 122°16'.
Warning: this ship's position is 9 days out of date.

Length 20 m; draft 2.4 m.

Type: Towing. MMSI: 367085890.

Date/timePositionNaut miles runAvg speedWind from/ knotsBaromVisibWave heightAir tempDewpointWater temp
2016-Jul-19 21:26N 38°06' W 122°16'  
2016-Jul-15 10:04N 38°05' W 121°51'0 0.0
2016-Jul-15 07:30N 38°05' W 121°51'0 0.0
2016-Jul-15 06:30N 38°05' W 121°51'0 0.0
2016-Jul-15 05:33N 38°05' W 121°51'0 0.0
2016-Jul-15 04:22N 38°05' W 121°51'1 0.1
2016-Jul-14 19:33N 38°04' W 121°51'11 5.4
2016-Jul-14 17:32N 38°03' W 122°05'6 6.2
2016-Jul-14 16:32N 38°04' W 122°13'3 3.1
2016-Jul-14 15:33N 38°06' W 122°16'3 2.8
2016-Jul-14 14:33N 38°03' W 122°18'4 3.9
2016-Jul-14 13:33N 38°02' W 122°22'4 3.9
2016-Jul-14 12:29N 37°59' W 122°26'3 2.7
2016-Jul-14 11:15N 37°55' W 122°27'2 2.6
2016-Jul-14 10:31N 37°54' W 122°26'3 2.7
2016-Jul-14 09:33N 37°51' W 122°24'5 4.6
2016-Jul-14 08:33N 37°47' W 122°23'1 0.8
2016-Jul-14 07:33N 37°46' W 122°23'5 5.2
2016-Jul-14 06:33N 37°42' W 122°19'5 4.9
2016-Jul-14 05:29N 37°38' W 122°15'1 1.2
2016-Jul-14 04:33N 37°39' W 122°14'1 0.9
2016-Jul-14 03:32N 37°38' W 122°14'1 0.9
2016-Jul-14 02:15N 37°38' W 122°13'1 1.1
2016-Jul-14 01:33N 37°38' W 122°14'1 0.7
2016-Jul-14 00:30N 37°39' W 122°14'1 1.1
2016-Jul-13 23:27N 37°38' W 122°14'0 0.4
2016-Jul-13 22:29N 37°38' W 122°14'1 0.7
2016-Jul-13 21:30N 37°39' W 122°14'1 1.2
2016-Jul-13 20:33N 37°37' W 122°14'0 0.1
2016-Jul-13 19:28N 37°38' W 122°14'0 0.4
2016-Jul-13 18:33N 37°38' W 122°13'0 0.4
2016-Jul-13 17:30N 37°38' W 122°14'0 0.0
2016-Jul-13 16:32N 37°38' W 122°14'0 0.4
2016-Jul-13 15:19N 37°38' W 122°14'0 0.0
2016-Jul-13 14:32N 37°38' W 122°14'1 1.0
2016-Jul-13 13:33N 37°38' W 122°14'1 0.9
2016-Jul-13 12:32N 37°38' W 122°15'3 2.7
2016-Jul-13 11:32N 37°40' W 122°17'5 4.9
2016-Jul-13 10:33N 37°44' W 122°21'3 2.9
2016-Jul-13 09:33N 37°46' W 122°23'1 1.3
2016-Jul-13 08:33N 37°45' W 122°23'1 0.6
2016-Jul-13 07:33N 37°45' W 122°23'0 0.2
2016-Jul-13 06:33N 37°45' W 122°22'8 6.4
2016-Jul-13 05:19N 37°39' W 122°16'2 2.7
2016-Jul-13 04:25N 37°39' W 122°13'1 0.9
2016-Jul-13 03:30N 37°38' W 122°14'1 0.7
2016-Jul-13 02:16N 37°39' W 122°13'1 0.9
2016-Jul-13 01:33N 37°38' W 122°14'0 0.1
2016-Jul-13 00:32N 37°38' W 122°14'1 0.6
2016-Jul-12 23:30N 37°38' W 122°13'1 0.9
2016-Jul-12 22:23N 37°37' W 122°14'1 0.8
2016-Jul-12 21:30N 37°37' W 122°13'1 1.3
2016-Jul-12 20:33N 37°38' W 122°14'0 0.0
2016-Jul-12 19:33N 37°38' W 122°14'1 0.7
2016-Jul-12 18:29N 37°38' W 122°13'0 0.1
2016-Jul-12 17:33N 37°38' W 122°14'0 0.0
2016-Jul-12 16:31N 37°38' W 122°14'0 0.2
2016-Jul-12 15:23N 37°38' W 122°14'1 0.7
2016-Jul-12 14:21N 37°38' W 122°13'1 1.0
2016-Jul-12 13:33N 37°38' W 122°14'1 0.9
2016-Jul-12 12:32N 37°38' W 122°13'1 0.6
2016-Jul-12 11:32N 37°38' W 122°13'2 1.8
2016-Jul-12 10:29N 37°39' W 122°16'4 4.0
2016-Jul-12 09:34N 37°42' W 122°18'6 5.5
2016-Jul-12 08:33N 37°46' W 122°23'0 0.3
2016-Jul-12 07:33N 37°46' W 122°23'0 0.0
2016-Jul-12 06:33N 37°46' W 122°23'0 0.0
2016-Jul-12 05:33N 37°46' W 122°23'0 0.1
2016-Jul-12 04:33N 37°46' W 122°23'0 0.0
2016-Jul-12 03:33N 37°46' W 122°23'3 3.4
2016-Jul-12 02:33N 37°50' W 122°24'10 5.0
2016-Jul-12 00:32N 37°60' W 122°25'5 4.7
2016-Jul-11 23:33N 38°03' W 122°20'6 5.9
2016-Jul-11 22:33N 38°04' W 122°13'4 0.1
2016-Jul-10 10:33N 38°02' W 122°08'4 4.3
2016-Jul-10 09:32N 38°04' W 122°13'1 0.2
2016-Jul-10 03:23N 38°04' W 122°15'6 5.0
2016-Jul-10 02:06N 38°02' W 122°22'3 4.9
2016-Jul-10 01:33N 37°60' W 122°25'6 4.9
2016-Jul-10 00:19N 37°54' W 122°25'4 4.7
2016-Jul-09 23:33N 37°51' W 122°23'4 3.8
2016-Jul-09 22:33N 37°47' W 122°23'1 1.4
2016-Jul-09 21:33N 37°46' W 122°23'  

Dump ship's entire track history